28.8°F
Current conditions from King Hill
Updated every 5 minutes
 
  Friday September 19, 2014

Station Historical Data
Daily Summary for May 29, 2012 Units:  Both    English   Metric
« Previous Day
Next Day »
Daily Weekly Monthly Yearly Custom
  High: Low: Average:
Temperature: 86.4 °F /  30.2 °C 62.6 °F /  17 °C 69.1 °F /  20.6 °C
Dew Point: 73.5 °F /  23.1 °C 58.2 °F /  14.6 °C 64.7 °F /  18.2 °C
Humidity: 96% 63% 87%
Wind Speed: 13.0mph /  20.9km/h - 2.7mph /  4.3km/h
Wind Gust: 40.0mph /  64.4km/h - -
Wind- - SSW
Pressure: 29.77 in /  1008 hPa 29.56 in /  1000.9 hPa -
Precipitation: 2.33 in /  59.2 mm    
Historical Graphs
 
 
Tabular Data for May 29, 2012
Time Temperature Dew Point Pressure Wind Wind Speed Wind Gust Humidity Daily Rainfall
00:00 62.7 °F /  17.1 °C 58.5 °F /  14.7 °C 29.77in /  1008hPa Calm     86% 0.01in /  0.3mm
00:05 62.7 °F /  17.1 °C 58.5 °F /  14.7 °C 29.77in /  1008hPa Calm     86% 0.00in /  0mm
00:10 62.7 °F /  17.1 °C 58.8 °F /  14.9 °C 29.76in /  1007.7hPa Calm     87% 0.00in /  0mm
00:15 62.7 °F /  17.1 °C 58.8 °F /  14.9 °C 29.76in /  1007.7hPa Calm     87% 0.00in /  0mm
00:20 62.7 °F /  17.1 °C 58.8 °F /  14.9 °C 29.76in /  1007.7hPa Calm     87% 0.00in /  0mm
00:25 62.7 °F /  17.1 °C 58.5 °F /  14.7 °C 29.75in /  1007.3hPa Calm     86% 0.00in /  0mm
00:30 62.8 °F /  17.1 °C 58.6 °F /  14.8 °C 29.75in /  1007.3hPa Calm     86% 0.00in /  0mm
00:35 62.8 °F /  17.1 °C 58.9 °F /  14.9 °C 29.75in /  1007.3hPa Calm     87% 0.00in /  0mm
00:40 62.7 °F /  17.1 °C 58.8 °F /  14.9 °C 29.75in /  1007.3hPa Calm     87% 0.00in /  0mm
00:45 62.7 °F /  17.1 °C 58.8 °F /  14.9 °C 29.75in /  1007.3hPa Calm     87% 0.00in /  0mm
00:50 62.6 °F /  17 °C 58.7 °F /  14.8 °C 29.75in /  1007.3hPa Calm     87% 0.00in /  0mm
01:00 62.6 °F /  17 °C 59.0 °F /  15 °C 29.74in /  1007hPa Calm     88% 0.00in /  0mm
01:05 62.6 °F /  17 °C 59.0 °F /  15 °C 29.74in /  1007hPa Calm     88% 0.00in /  0mm
01:10 62.6 °F /  17 °C 59.0 °F /  15 °C 29.74in /  1007hPa Calm   1.0mph /  1.6km/h 88% 0.00in /  0mm
01:15 62.6 °F /  17 °C 59.0 °F /  15 °C 29.74in /  1007hPa Calm   1.0mph /  1.6km/h 88% 0.00in /  0mm
01:20 62.6 °F /  17 °C 59.0 °F /  15 °C 29.74in /  1007hPa Calm     88% 0.00in /  0mm
01:25 62.7 °F /  17.1 °C 59.1 °F /  15.1 °C 29.74in /  1007hPa Calm   1.0mph /  1.6km/h 88% 0.00in /  0mm
01:30 62.7 °F /  17.1 °C 58.8 °F /  14.9 °C 29.74in /  1007hPa Calm   1.0mph /  1.6km/h 87% 0.00in /  0mm
01:35 62.8 °F /  17.1 °C 58.9 °F /  14.9 °C 29.74in /  1007hPa Calm   3.0mph /  4.8km/h 87% 0.00in /  0mm
01:40 62.9 °F /  17.2 °C 59.0 °F /  15 °C 29.73in /  1006.7hPa Calm   3.0mph /  4.8km/h 87% 0.00in /  0mm
01:45 63.2 °F /  17.3 °C 58.6 °F /  14.8 °C 29.73in /  1006.7hPa Calm   3.0mph /  4.8km/h 85% 0.00in /  0mm
01:50 63.5 °F /  17.5 °C 58.6 °F /  14.8 °C 29.73in /  1006.7hPa Calm   3.0mph /  4.8km/h 84% 0.00in /  0mm
01:55 63.9 °F /  17.7 °C 58.6 °F /  14.8 °C 29.72in /  1006.3hPa Calm   7.0mph /  11.3km/h 83% 0.00in /  0mm
02:00 64.2 °F /  17.9 °C 58.6 °F /  14.8 °C 29.72in /  1006.3hPa Calm   7.0mph /  11.3km/h 82% 0.00in /  0mm
02:05 64.2 °F /  17.9 °C 58.6 °F /  14.8 °C 29.71in /  1006hPa SSW 1.0mph /  1.6km/h 5.0mph /  8km/h 82% 0.00in /  0mm
02:10 64.2 °F /  17.9 °C 58.6 °F /  14.8 °C 29.71in /  1006hPa SSW 2.0mph /  3.2km/h 7.0mph /  11.3km/h 82% 0.00in /  0mm
02:15 64.1 °F /  17.8 °C 58.5 °F /  14.7 °C 29.71in /  1006hPa SSW 1.0mph /  1.6km/h 7.0mph /  11.3km/h 82% 0.00in /  0mm
02:20 64.0 °F /  17.8 °C 58.4 °F /  14.7 °C 29.71in /  1006hPa Calm   5.0mph /  8km/h 82% 0.00in /  0mm
02:25 63.8 °F /  17.7 °C 58.2 °F /  14.6 °C 29.71in /  1006hPa Calm   5.0mph /  8km/h 82% 0.00in /  0mm
02:30 63.7 °F /  17.6 °C 58.4 °F /  14.7 °C 29.71in /  1006hPa SSW 1.0mph /  1.6km/h 5.0mph /  8km/h 83% 0.00in /  0mm
02:35 63.7 °F /  17.6 °C 58.4 °F /  14.7 °C 29.71in /  1006hPa Calm   4.0mph /  6.4km/h 83% 0.00in /  0mm
02:40 63.7 °F /  17.6 °C 58.8 °F /  14.9 °C 29.71in /  1006hPa Calm   4.0mph /  6.4km/h 84% 0.00in /  0mm
02:45 63.7 °F /  17.6 °C 58.8 °F /  14.9 °C 29.71in /  1006hPa Calm   4.0mph /  6.4km/h 84% 0.00in /  0mm
02:50 63.8 °F /  17.7 °C 59.2 °F /  15.1 °C 29.71in /  1006hPa Calm   4.0mph /  6.4km/h 85% 0.00in /  0mm
02:55 64.0 °F /  17.8 °C 59.4 °F /  15.2 °C 29.72in /  1006.3hPa Calm   4.0mph /  6.4km/h 85% 0.00in /  0mm
03:00 64.1 °F /  17.8 °C 59.5 °F /  15.3 °C 29.72in /  1006.3hPa Calm   4.0mph /  6.4km/h 85% 0.00in /  0mm
03:05 64.2 °F /  17.9 °C 59.6 °F /  15.3 °C 29.72in /  1006.3hPa Calm   4.0mph /  6.4km/h 85% 0.00in /  0mm
03:10 64.1 °F /  17.8 °C 59.8 °F /  15.4 °C 29.71in /  1006hPa SSW 1.0mph /  1.6km/h 3.0mph /  4.8km/h 86% 0.00in /  0mm
03:15 64.3 °F /  17.9 °C 60.0 °F /  15.6 °C 29.71in /  1006hPa SSW 1.0mph /  1.6km/h 5.0mph /  8km/h 86% 0.00in /  0mm
03:20 64.5 °F /  18.1 °C 60.5 °F /  15.8 °C 29.70in /  1005.6hPa Calm   5.0mph /  8km/h 87% 0.00in /  0mm
03:25 64.8 °F /  18.2 °C 60.8 °F /  16 °C 29.70in /  1005.6hPa Calm   5.0mph /  8km/h 87% 0.00in /  0mm
03:30 65.2 °F /  18.4 °C 61.6 °F /  16.4 °C 29.70in /  1005.6hPa SW 1.0mph /  1.6km/h 7.0mph /  11.3km/h 88% 0.00in /  0mm
03:35 65.9 °F /  18.8 °C 62.6 °F /  17 °C 29.70in /  1005.6hPa SW 1.0mph /  1.6km/h 7.0mph /  11.3km/h 89% 0.00in /  0mm
03:40 66.2 °F /  19 °C 62.9 °F /  17.2 °C 29.69in /  1005.3hPa SSW 2.0mph /  3.2km/h 6.0mph /  9.7km/h 89% 0.00in /  0mm
03:50 67.0 °F /  19.4 °C 63.7 °F /  17.6 °C 29.69in /  1005.3hPa SW 1.0mph /  1.6km/h 6.0mph /  9.7km/h 89% 0.00in /  0mm
03:55 67.1 °F /  19.5 °C 63.4 °F /  17.4 °C 29.68in /  1005hPa Calm   6.0mph /  9.7km/h 88% 0.00in /  0mm
04:00 67.1 °F /  19.5 °C 63.4 °F /  17.4 °C 29.68in /  1005hPa SW 1.0mph /  1.6km/h 5.0mph /  8km/h 88% 0.00in /  0mm
04:05 67.6 °F /  19.8 °C 64.2 °F /  17.9 °C 29.68in /  1005hPa Calm   8.0mph /  12.9km/h 89% 0.00in /  0mm
04:10 67.6 °F /  19.8 °C 63.9 °F /  17.7 °C 29.68in /  1005hPa Calm   8.0mph /  12.9km/h 88% 0.00in /  0mm
04:15 67.6 °F /  19.8 °C 63.9 °F /  17.7 °C 29.68in /  1005hPa Calm   5.0mph /  8km/h 88% 0.00in /  0mm
04:20 67.5 °F /  19.7 °C 63.8 °F /  17.7 °C 29.68in /  1005hPa Calm   2.0mph /  3.2km/h 88% 0.00in /  0mm
04:25 67.5 °F /  19.7 °C 64.1 °F /  17.8 °C 29.67in /  1004.6hPa Calm   5.0mph /  8km/h 89% 0.00in /  0mm
04:30 67.6 °F /  19.8 °C 64.2 °F /  17.9 °C 29.67in /  1004.6hPa Calm   5.0mph /  8km/h 89% 0.00in /  0mm
04:40 68.0 °F /  20 °C 64.6 °F /  18.1 °C 29.67in /  1004.6hPa Calm   7.0mph /  11.3km/h 89% 0.00in /  0mm
04:45 68.1 °F /  20.1 °C 64.7 °F /  18.2 °C 29.67in /  1004.6hPa SSW 2.0mph /  3.2km/h 9.0mph /  14.5km/h 89% 0.00in /  0mm
04:55 68.1 °F /  20.1 °C 64.7 °F /  18.2 °C 29.67in /  1004.6hPa SSW 2.0mph /  3.2km/h 6.0mph /  9.7km/h 89% 0.00in /  0mm
05:00 68.0 °F /  20 °C 64.6 °F /  18.1 °C 29.66in /  1004.3hPa SSW 1.0mph /  1.6km/h 7.0mph /  11.3km/h 89% 0.00in /  0mm
05:05 67.9 °F /  19.9 °C 64.5 °F /  18.1 °C 29.67in /  1004.6hPa South 1.0mph /  1.6km/h 7.0mph /  11.3km/h 89% 0.00in /  0mm
05:10 67.7 °F /  19.8 °C 64.3 °F /  17.9 °C 29.67in /  1004.6hPa SSW 3.0mph /  4.8km/h 7.0mph /  11.3km/h 89% 0.00in /  0mm
05:15 67.4 °F /  19.7 °C 64.0 °F /  17.8 °C 29.68in /  1005hPa SSW 1.0mph /  1.6km/h 8.0mph /  12.9km/h 89% 0.00in /  0mm
05:20 67.2 °F /  19.6 °C 63.9 °F /  17.7 °C 29.70in /  1005.6hPa SW 5.0mph /  8km/h 14.0mph /  22.5km/h 89% 0.00in /  0mm
05:25 67.2 °F /  19.6 °C 63.9 °F /  17.7 °C 29.71in /  1006hPa Calm   14.0mph /  22.5km/h 89% 0.00in /  0mm
05:30 67.3 °F /  19.6 °C 63.9 °F /  17.7 °C 29.71in /  1006hPa Calm   6.0mph /  9.7km/h 89% 0.00in /  0mm
05:35 66.4 °F /  19.1 °C 62.1 °F /  16.7 °C 29.72in /  1006.3hPa NW 5.0mph /  8km/h 11.0mph /  17.7km/h 86% 0.00in /  0mm
05:45 64.8 °F /  18.2 °C 61.5 °F /  16.4 °C 29.71in /  1006hPa WSW 2.0mph /  3.2km/h 10.0mph /  16.1km/h 89% 0.07in /  1.8mm
05:50 65.0 °F /  18.3 °C 62.0 °F /  16.7 °C 29.71in /  1006hPa Calm   6.0mph /  9.7km/h 90% 0.08in /  2mm
06:00 65.3 °F /  18.5 °C 62.6 °F /  17 °C 29.69in /  1005.3hPa SSW 2.0mph /  3.2km/h 8.0mph /  12.9km/h 91% 0.08in /  2mm
06:05 65.5 °F /  18.6 °C 63.1 °F /  17.3 °C 29.70in /  1005.6hPa South 1.0mph /  1.6km/h 8.0mph /  12.9km/h 92% 0.08in /  2mm
06:10 65.7 °F /  18.7 °C 63.6 °F /  17.6 °C 29.70in /  1005.6hPa SSW 1.0mph /  1.6km/h 6.0mph /  9.7km/h 93% 0.08in /  2mm
06:15 65.8 °F /  18.8 °C 63.7 °F /  17.6 °C 29.69in /  1005.3hPa Calm   5.0mph /  8km/h 93% 0.08in /  2mm
06:20 65.9 °F /  18.8 °C 63.8 °F /  17.7 °C 29.68in /  1005hPa SW 1.0mph /  1.6km/h 8.0mph /  12.9km/h 93% 0.08in /  2mm
06:25 65.9 °F /  18.8 °C 63.8 °F /  17.7 °C 29.68in /  1005hPa SSW 1.0mph /  1.6km/h 8.0mph /  12.9km/h 93% 0.08in /  2mm
06:30 66.0 °F /  18.9 °C 64.2 °F /  17.9 °C 29.67in /  1004.6hPa Calm   6.0mph /  9.7km/h 94% 0.08in /  2mm
06:35 66.1 °F /  18.9 °C 64.3 °F /  17.9 °C 29.67in /  1004.6hPa SSW 3.0mph /  4.8km/h 8.0mph /  12.9km/h 94% 0.08in /  2mm
06:40 66.2 °F /  19 °C 64.4 °F /  18 °C 29.68in /  1005hPa SSW 1.0mph /  1.6km/h 8.0mph /  12.9km/h 94% 0.08in /  2mm
06:50 66.2 °F /  19 °C 64.4 °F /  18 °C 29.67in /  1004.6hPa Calm   5.0mph /  8km/h 94% 0.08in /  2mm
06:55 66.3 °F /  19.1 °C 64.5 °F /  18.1 °C 29.67in /  1004.6hPa SW 1.0mph /  1.6km/h 6.0mph /  9.7km/h 94% 0.08in /  2mm
07:00 66.4 °F /  19.1 °C 64.6 °F /  18.1 °C 29.67in /  1004.6hPa SW 3.0mph /  4.8km/h 7.0mph /  11.3km/h 94% 0.08in /  2mm
07:05 66.6 °F /  19.2 °C 65.1 °F /  18.4 °C 29.67in /  1004.6hPa Calm   7.0mph /  11.3km/h 95% 0.08in /  2mm
07:10 66.8 °F /  19.3 °C 65.3 °F /  18.5 °C 29.67in /  1004.6hPa Calm   7.0mph /  11.3km/h 95% 0.08in /  2mm
07:15 67.0 °F /  19.4 °C 65.5 °F /  18.6 °C 29.66in /  1004.3hPa SW 1.0mph /  1.6km/h 7.0mph /  11.3km/h 95% 0.08in /  2mm
07:20 67.3 °F /  19.6 °C 65.8 °F /  18.8 °C 29.67in /  1004.6hPa Calm   6.0mph /  9.7km/h 95% 0.08in /  2mm
07:25 67.6 °F /  19.8 °C 66.1 °F /  18.9 °C 29.68in /  1005hPa Calm   5.0mph /  8km/h 95% 0.08in /  2mm
07:30 67.6 °F /  19.8 °C 66.4 °F /  19.1 °C 29.66in /  1004.3hPa SSW 3.0mph /  4.8km/h 7.0mph /  11.3km/h 96% 0.13in /  3.3mm
07:35 67.8 °F /  19.9 °C 66.6 °F /  19.2 °C 29.66in /  1004.3hPa SSW 1.0mph /  1.6km/h 7.0mph /  11.3km/h 96% 0.13in /  3.3mm
07:40 68.0 °F /  20 °C 66.8 °F /  19.3 °C 29.67in /  1004.6hPa SSW 1.0mph /  1.6km/h 8.0mph /  12.9km/h 96% 0.13in /  3.3mm
07:45 68.3 °F /  20.2 °C 67.1 °F /  19.5 °C 29.68in /  1005hPa SW 2.0mph /  3.2km/h 9.0mph /  14.5km/h 96% 0.13in /  3.3mm
07:50 68.7 °F /  20.4 °C 67.5 °F /  19.7 °C 29.68in /  1005hPa SSW 2.0mph /  3.2km/h 11.0mph /  17.7km/h 96% 0.13in /  3.3mm
07:55 68.9 °F /  20.5 °C 67.7 °F /  19.8 °C 29.67in /  1004.6hPa SSW 5.0mph /  8km/h 13.0mph /  20.9km/h 96% 0.13in /  3.3mm
07:59 69.0 °F /  20.6 °C 67.5 °F /  19.7 °C 29.68in /  1005hPa Calm   13.0mph /  20.9km/h 95% 0.13in /  3.3mm
08:05 69.1 °F /  20.6 °C 67.6 °F /  19.8 °C 29.68in /  1005hPa SW 6.0mph /  9.7km/h 17.0mph /  27.4km/h 95% 0.13in /  3.3mm
08:10 69.2 °F /  20.7 °C 67.7 °F /  19.8 °C 29.68in /  1005hPa SSW 2.0mph /  3.2km/h 17.0mph /  27.4km/h 95% 0.13in /  3.3mm
08:15 69.1 °F /  20.6 °C 67.6 °F /  19.8 °C 29.67in /  1004.6hPa SW 3.0mph /  4.8km/h 13.0mph /  20.9km/h 95% 0.14in /  3.6mm
08:20 69.0 °F /  20.6 °C 67.5 °F /  19.7 °C 29.67in /  1004.6hPa SW 3.0mph /  4.8km/h 12.0mph /  19.3km/h 95% 0.14in /  3.6mm
08:25 68.8 °F /  20.4 °C 67.3 °F /  19.6 °C 29.67in /  1004.6hPa SW 3.0mph /  4.8km/h 12.0mph /  19.3km/h 95% 0.14in /  3.6mm
08:30 68.8 °F /  20.4 °C 67.3 °F /  19.6 °C 29.68in /  1005hPa SW 1.0mph /  1.6km/h 10.0mph /  16.1km/h 95% 0.14in /  3.6mm
08:35 68.7 °F /  20.4 °C 66.9 °F /  19.4 °C 29.68in /  1005hPa SW 4.0mph /  6.4km/h 10.0mph /  16.1km/h 94% 0.14in /  3.6mm
08:40 68.6 °F /  20.3 °C 66.8 °F /  19.3 °C 29.68in /  1005hPa SW 3.0mph /  4.8km/h 10.0mph /  16.1km/h 94% 0.14in /  3.6mm
08:45 68.6 °F /  20.3 °C 66.8 °F /  19.3 °C 29.69in /  1005.3hPa Calm   8.0mph /  12.9km/h 94% 0.14in /  3.6mm
08:50 68.7 °F /  20.4 °C 66.9 °F /  19.4 °C 29.69in /  1005.3hPa SW 2.0mph /  3.2km/h 7.0mph /  11.3km/h 94% 0.14in /  3.6mm
08:55 68.8 °F /  20.4 °C 67.3 °F /  19.6 °C 29.69in /  1005.3hPa Calm   8.0mph /  12.9km/h 95% 0.14in /  3.6mm
09:05 68.6 °F /  20.3 °C 66.8 °F /  19.3 °C 29.69in /  1005.3hPa SSW 1.0mph /  1.6km/h 7.0mph /  11.3km/h 94% 0.14in /  3.6mm
09:10 68.7 °F /  20.4 °C 67.2 °F /  19.6 °C 29.69in /  1005.3hPa SSW 2.0mph /  3.2km/h 9.0mph /  14.5km/h 95% 0.14in /  3.6mm
09:15 68.8 °F /  20.4 °C 67.3 °F /  19.6 °C 29.70in /  1005.6hPa SW 1.0mph /  1.6km/h 9.0mph /  14.5km/h 95% 0.14in /  3.6mm
09:20 69.1 °F /  20.6 °C 67.6 °F /  19.8 °C 29.69in /  1005.3hPa Calm   9.0mph /  14.5km/h 95% 0.14in /  3.6mm
09:25 69.3 °F /  20.7 °C 67.8 °F /  19.9 °C 29.69in /  1005.3hPa SW 3.0mph /  4.8km/h 11.0mph /  17.7km/h 95% 0.14in /  3.6mm
09:30 69.5 °F /  20.8 °C 68.0 °F /  20 °C 29.69in /  1005.3hPa Calm   11.0mph /  17.7km/h 95% 0.14in /  3.6mm
09:40 69.7 °F /  20.9 °C 68.2 °F /  20.1 °C 29.68in /  1005hPa Calm   8.0mph /  12.9km/h 95% 0.14in /  3.6mm
09:45 70.3 °F /  21.3 °C 68.8 °F /  20.4 °C 29.68in /  1005hPa South 1.0mph /  1.6km/h 7.0mph /  11.3km/h 95% 0.14in /  3.6mm
09:50 70.8 °F /  21.6 °C 69.3 °F /  20.7 °C 29.67in /  1004.6hPa Calm   7.0mph /  11.3km/h 95% 0.14in /  3.6mm
09:55 71.5 °F /  21.9 °C 70.0 °F /  21.1 °C 29.67in /  1004.6hPa SSW 3.0mph /  4.8km/h 8.0mph /  12.9km/h 95% 0.14in /  3.6mm
10:00 71.9 °F /  22.2 °C 69.8 °F /  21 °C 29.66in /  1004.3hPa SSW 3.0mph /  4.8km/h 9.0mph /  14.5km/h 93% 0.14in /  3.6mm
10:05 72.4 °F /  22.4 °C 69.9 °F /  21.1 °C 29.66in /  1004.3hPa SW 2.0mph /  3.2km/h 9.0mph /  14.5km/h 92% 0.14in /  3.6mm
10:10 73.3 °F /  22.9 °C 70.5 °F /  21.4 °C 29.66in /  1004.3hPa Calm   8.0mph /  12.9km/h 91% 0.14in /  3.6mm
10:15 73.9 °F /  23.3 °C 70.8 °F /  21.6 °C 29.67in /  1004.6hPa SW 1.0mph /  1.6km/h 6.0mph /  9.7km/h 90% 0.14in /  3.6mm
10:20 74.2 °F /  23.4 °C 70.4 °F /  21.3 °C 29.67in /  1004.6hPa SW 1.0mph /  1.6km/h 7.0mph /  11.3km/h 88% 0.14in /  3.6mm
10:25 74.9 °F /  23.8 °C 70.4 °F /  21.3 °C 29.66in /  1004.3hPa SW 3.0mph /  4.8km/h 11.0mph /  17.7km/h 86% 0.14in /  3.6mm
10:35 75.6 °F /  24.2 °C 70.4 °F /  21.3 °C 29.66in /  1004.3hPa SW 4.0mph /  6.4km/h 12.0mph /  19.3km/h 84% 0.14in /  3.6mm
10:40 76.2 °F /  24.6 °C 71.0 °F /  21.7 °C 29.67in /  1004.6hPa SSW 2.0mph /  3.2km/h 12.0mph /  19.3km/h 84% 0.14in /  3.6mm
10:45 76.5 °F /  24.7 °C 70.2 °F /  21.2 °C 29.67in /  1004.6hPa SSW 3.0mph /  4.8km/h 11.0mph /  17.7km/h 81% 0.14in /  3.6mm
10:50 76.4 °F /  24.7 °C 69.8 °F /  21 °C 29.67in /  1004.6hPa SSW 4.0mph /  6.4km/h 11.0mph /  17.7km/h 80% 0.14in /  3.6mm
10:54 76.2 °F /  24.6 °C 69.2 °F /  20.7 °C 29.67in /  1004.6hPa SSW 2.0mph /  3.2km/h 12.0mph /  19.3km/h 79% 0.14in /  3.6mm
10:59 76.6 °F /  24.8 °C 69.6 °F /  20.9 °C 29.67in /  1004.6hPa South 1.0mph /  1.6km/h 12.0mph /  19.3km/h 79% 0.14in /  3.6mm
11:05 77.1 °F /  25.1 °C 69.7 °F /  20.9 °C 29.67in /  1004.6hPa SSE 1.0mph /  1.6km/h 10.0mph /  16.1km/h 78% 0.14in /  3.6mm
11:09 77.5 °F /  25.3 °C 70.5 °F /  21.4 °C 29.67in /  1004.6hPa Calm   8.0mph /  12.9km/h 79% 0.14in /  3.6mm
11:15 77.8 °F /  25.4 °C 70.0 °F /  21.1 °C 29.67in /  1004.6hPa South 2.0mph /  3.2km/h 9.0mph /  14.5km/h 77% 0.14in /  3.6mm
11:20 77.9 °F /  25.5 °C 69.7 °F /  20.9 °C 29.67in /  1004.6hPa SW 1.0mph /  1.6km/h 9.0mph /  14.5km/h 76% 0.14in /  3.6mm
11:25 78.1 °F /  25.6 °C 70.3 °F /  21.3 °C 29.67in /  1004.6hPa South 2.0mph /  3.2km/h 12.0mph /  19.3km/h 77% 0.14in /  3.6mm
11:30 78.2 °F /  25.7 °C 69.2 °F /  20.7 °C 29.67in /  1004.6hPa SSW 3.0mph /  4.8km/h 12.0mph /  19.3km/h 74% 0.14in /  3.6mm
11:35 78.3 °F /  25.7 °C 70.1 °F /  21.2 °C 29.66in /  1004.3hPa SW 1.0mph /  1.6km/h 12.0mph /  19.3km/h 76% 0.14in /  3.6mm
11:44 78.7 °F /  25.9 °C 69.7 °F /  20.9 °C 29.66in /  1004.3hPa SSW 3.0mph /  4.8km/h 10.0mph /  16.1km/h 74% 0.14in /  3.6mm
11:50 79.4 °F /  26.3 °C 71.9 °F /  22.2 °C 29.66in /  1004.3hPa Calm   10.0mph /  16.1km/h 78% 0.14in /  3.6mm
11:55 80.2 °F /  26.8 °C 72.0 °F /  22.2 °C 29.65in /  1003.9hPa SW 2.0mph /  3.2km/h 10.0mph /  16.1km/h 76% 0.14in /  3.6mm
12:00 80.5 °F /  26.9 °C 71.1 °F /  21.7 °C 29.66in /  1004.3hPa SW 5.0mph /  8km/h 13.0mph /  20.9km/h 73% 0.14in /  3.6mm
12:05 80.6 °F /  27 °C 71.6 °F /  22 °C 29.66in /  1004.3hPa South 4.0mph /  6.4km/h 13.0mph /  20.9km/h 74% 0.14in /  3.6mm
12:10 81.1 °F /  27.3 °C 71.6 °F /  22 °C 29.66in /  1004.3hPa SSW 3.0mph /  4.8km/h 13.0mph /  20.9km/h 73% 0.14in /  3.6mm
12:15 81.2 °F /  27.3 °C 70.9 °F /  21.6 °C 29.66in /  1004.3hPa SW 6.0mph /  9.7km/h 14.0mph /  22.5km/h 71% 0.14in /  3.6mm
12:20 80.7 °F /  27.1 °C 70.8 °F /  21.6 °C 29.65in /  1003.9hPa SSW 3.0mph /  4.8km/h 14.0mph /  22.5km/h 72% 0.14in /  3.6mm
12:25 80.8 °F /  27.1 °C 72.5 °F /  22.5 °C 29.65in /  1003.9hPa SSW 2.0mph /  3.2km/h 11.0mph /  17.7km/h 76% 0.14in /  3.6mm
12:30 81.0 °F /  27.2 °C 71.9 °F /  22.2 °C 29.65in /  1003.9hPa SW 1.0mph /  1.6km/h 11.0mph /  17.7km/h 74% 0.14in /  3.6mm
12:40 81.8 °F /  27.7 °C 71.5 °F /  21.9 °C 29.65in /  1003.9hPa SW 5.0mph /  8km/h 13.0mph /  20.9km/h 71% 0.14in /  3.6mm
12:45 82.3 °F /  27.9 °C 71.1 °F /  21.7 °C 29.65in /  1003.9hPa SW 7.0mph /  11.3km/h 15.0mph /  24.1km/h 69% 0.14in /  3.6mm
12:49 82.5 °F /  28.1 °C 71.7 °F /  22.1 °C 29.64in /  1003.6hPa SW 5.0mph /  8km/h 15.0mph /  24.1km/h 70% 0.14in /  3.6mm
12:55 82.8 °F /  28.2 °C 72.4 °F /  22.4 °C 29.64in /  1003.6hPa SW 5.0mph /  8km/h 15.0mph /  24.1km/h 71% 0.14in /  3.6mm
13:00 83.0 °F /  28.3 °C 72.2 °F /  22.3 °C 29.64in /  1003.6hPa SW 3.0mph /  4.8km/h 18.0mph /  29km/h 70% 0.14in /  3.6mm
13:05 83.1 °F /  28.4 °C 71.9 °F /  22.2 °C 29.64in /  1003.6hPa SW 4.0mph /  6.4km/h 18.0mph /  29km/h 69% 0.14in /  3.6mm
13:10 83.5 °F /  28.6 °C 72.7 °F /  22.6 °C 29.63in /  1003.3hPa SW 3.0mph /  4.8km/h 13.0mph /  20.9km/h 70% 0.14in /  3.6mm
13:14 83.6 °F /  28.7 °C 72.4 °F /  22.4 °C 29.62in /  1002.9hPa SW 6.0mph /  9.7km/h 13.0mph /  20.9km/h 69% 0.14in /  3.6mm
13:20 83.4 °F /  28.6 °C 71.7 °F /  22.1 °C 29.61in /  1002.6hPa SW 5.0mph /  8km/h 13.0mph /  20.9km/h 68% 0.14in /  3.6mm
13:25 83.5 °F /  28.6 °C 72.3 °F /  22.4 °C 29.61in /  1002.6hPa SW 3.0mph /  4.8km/h 13.0mph /  20.9km/h 69% 0.14in /  3.6mm
13:35 84.2 °F /  29 °C 72.9 °F /  22.7 °C 29.60in /  1002.3hPa SW 5.0mph /  8km/h 13.0mph /  20.9km/h 69% 0.14in /  3.6mm
13:45 84.8 °F /  29.3 °C 72.6 °F /  22.6 °C 29.59in /  1001.9hPa SSW 3.0mph /  4.8km/h 13.0mph /  20.9km/h 67% 0.14in /  3.6mm
13:49 84.8 °F /  29.3 °C 73.5 °F /  23.1 °C 29.59in /  1001.9hPa West 1.0mph /  1.6km/h 13.0mph /  20.9km/h 69% 0.14in /  3.6mm
13:55 85.1 °F /  29.5 °C 72.9 °F /  22.7 °C 29.58in /  1001.6hPa SSW 5.0mph /  8km/h 10.0mph /  16.1km/h 67% 0.14in /  3.6mm
14:00 85.4 °F /  29.7 °C 73.2 °F /  22.9 °C 29.58in /  1001.6hPa SW 1.0mph /  1.6km/h 10.0mph /  16.1km/h 67% 0.14in /  3.6mm
14:05 86.0 °F /  30 °C 72.9 °F /  22.7 °C 29.58in /  1001.6hPa SW 2.0mph /  3.2km/h 10.0mph /  16.1km/h 65% 0.14in /  3.6mm
14:10 86.2 °F /  30.1 °C 72.1 °F /  22.3 °C 29.57in /  1001.2hPa SW 4.0mph /  6.4km/h 11.0mph /  17.7km/h 63% 0.14in /  3.6mm
14:15 86.4 °F /  30.2 °C 73.3 °F /  22.9 °C 29.56in /  1000.9hPa SSW 3.0mph /  4.8km/h 11.0mph /  17.7km/h 65% 0.14in /  3.6mm
14:20 86.1 °F /  30.1 °C 72.0 °F /  22.2 °C 29.57in /  1001.2hPa SW 7.0mph /  11.3km/h 14.0mph /  22.5km/h 63% 0.14in /  3.6mm
14:30 85.5 °F /  29.7 °C 73.3 °F /  22.9 °C 29.57in /  1001.2hPa South 1.0mph /  1.6km/h 11.0mph /  17.7km/h 67% 0.14in /  3.6mm
14:39 83.3 °F /  28.5 °C 71.2 °F /  21.8 °C 29.58in /  1001.6hPa SSW 2.0mph /  3.2km/h 10.0mph /  16.1km/h 67% 0.14in /  3.6mm
14:45 82.4 °F /  28 °C 71.2 °F /  21.8 °C 29.58in /  1001.6hPa South 1.0mph /  1.6km/h 9.0mph /  14.5km/h 69% 0.14in /  3.6mm
14:50 82.0 °F /  27.8 °C 71.3 °F /  21.8 °C 29.57in /  1001.2hPa Calm   9.0mph /  14.5km/h 70% 0.14in /  3.6mm
14:54 81.7 °F /  27.6 °C 71.0 °F /  21.7 °C 29.57in /  1001.2hPa SSW 1.0mph /  1.6km/h 7.0mph /  11.3km/h 70% 0.14in /  3.6mm
14:59 81.0 °F /  27.2 °C 70.3 °F /  21.3 °C 29.57in /  1001.2hPa SW 1.0mph /  1.6km/h 8.0mph /  12.9km/h 70% 0.14in /  3.6mm
15:05 80.3 °F /  26.8 °C 70.9 °F /  21.6 °C 29.57in /  1001.2hPa SSW 3.0mph /  4.8km/h 11.0mph /  17.7km/h 73% 0.15in /  3.8mm
15:10 78.4 °F /  25.8 °C 69.4 °F /  20.8 °C 29.56in /  1000.9hPa SSW 1.0mph /  1.6km/h 14.0mph /  22.5km/h 74% 0.15in /  3.8mm
15:15 77.4 °F /  25.2 °C 69.6 °F /  20.9 °C 29.57in /  1001.2hPa Calm   14.0mph /  22.5km/h 77% 0.15in /  3.8mm
15:19 76.7 °F /  24.8 °C 70.1 °F /  21.2 °C 29.58in /  1001.6hPa Calm     80% 0.15in /  3.8mm
15:25 75.7 °F /  24.3 °C 69.5 °F /  20.8 °C 29.57in /  1001.2hPa Calm   1.0mph /  1.6km/h 81% 0.16in /  4.1mm
15:30 74.9 °F /  23.8 °C 69.7 °F /  20.9 °C 29.61in /  1002.6hPa WNW 1.0mph /  1.6km/h 7.0mph /  11.3km/h 84% 0.21in /  5.3mm
15:35 71.5 °F /  21.9 °C 64.7 °F /  18.2 °C 29.64in /  1003.6hPa NW 9.0mph /  14.5km/h 27.0mph /  43.5km/h 79% 0.56in /  14.2mm
15:40 68.9 °F /  20.5 °C 64.2 °F /  17.9 °C 29.65in /  1003.9hPa NW 8.0mph /  12.9km/h 27.0mph /  43.5km/h 85% 1.02in /  25.9mm
15:50 66.6 °F /  19.2 °C 63.3 °F /  17.4 °C 29.64in /  1003.6hPa SW 6.0mph /  9.7km/h 18.0mph /  29km/h 89% 1.49in /  37.8mm
15:54 67.0 °F /  19.4 °C 64.0 °F /  17.8 °C 29.64in /  1003.6hPa SSW 10.0mph /  16.1km/h 20.0mph /  32.2km/h 90% 1.60in /  40.6mm
15:59 67.1 °F /  19.5 °C 64.1 °F /  17.8 °C 29.64in /  1003.6hPa SSW 13.0mph /  20.9km/h 40.0mph /  64.4km/h 90% 2.03in /  51.6mm
16:05 65.9 °F /  18.8 °C 62.9 °F /  17.2 °C 29.61in /  1002.6hPa SSW 8.0mph /  12.9km/h 40.0mph /  64.4km/h 90% 2.19in /  55.6mm
16:10 65.0 °F /  18.3 °C 61.7 °F /  16.5 °C 29.58in /  1001.6hPa South 3.0mph /  4.8km/h 23.0mph /  37km/h 89% 2.26in /  57.4mm
16:14 64.3 °F /  17.9 °C 61.0 °F /  16.1 °C 29.58in /  1001.6hPa South 6.0mph /  9.7km/h 14.0mph /  22.5km/h 89% 2.28in /  57.9mm
16:19 63.8 °F /  17.7 °C 60.5 °F /  15.8 °C 29.59in /  1001.9hPa South 2.0mph /  3.2km/h 12.0mph /  19.3km/h 89% 2.28in /  57.9mm
16:25 63.4 °F /  17.4 °C 60.1 °F /  15.6 °C 29.58in /  1001.6hPa South 2.0mph /  3.2km/h 10.0mph /  16.1km/h 89% 2.28in /  57.9mm
16:34 63.4 °F /  17.4 °C 60.4 °F /  15.8 °C 29.58in /  1001.6hPa SSW 1.0mph /  1.6km/h 9.0mph /  14.5km/h 90% 2.28in /  57.9mm
16:40 63.7 °F /  17.6 °C 60.7 °F /  15.9 °C 29.58in /  1001.6hPa SSW 4.0mph /  6.4km/h 11.0mph /  17.7km/h 90% 2.28in /  57.9mm
16:44 64.3 °F /  17.9 °C 61.6 °F /  16.4 °C 29.57in /  1001.2hPa SSW 2.0mph /  3.2km/h 11.0mph /  17.7km/h 91% 2.28in /  57.9mm
16:49 65.0 °F /  18.3 °C 62.3 °F /  16.8 °C 29.57in /  1001.2hPa South 2.0mph /  3.2km/h 11.0mph /  17.7km/h 91% 2.28in /  57.9mm
16:55 65.5 °F /  18.6 °C 62.8 °F /  17.1 °C 29.56in /  1000.9hPa South 2.0mph /  3.2km/h 12.0mph /  19.3km/h 91% 2.28in /  57.9mm
16:59 65.9 °F /  18.8 °C 63.2 °F /  17.3 °C 29.56in /  1000.9hPa South 1.0mph /  1.6km/h 12.0mph /  19.3km/h 91% 2.28in /  57.9mm
17:05 66.5 °F /  19.2 °C 63.5 °F /  17.5 °C 29.56in /  1000.9hPa SSE 3.0mph /  4.8km/h 11.0mph /  17.7km/h 90% 2.28in /  57.9mm
17:09 67.0 °F /  19.4 °C 63.7 °F /  17.6 °C 29.57in /  1001.2hPa WSW 1.0mph /  1.6km/h 12.0mph /  19.3km/h 89% 2.28in /  57.9mm
17:15 67.0 °F /  19.4 °C 63.7 °F /  17.6 °C 29.57in /  1001.2hPa SW 1.0mph /  1.6km/h 12.0mph /  19.3km/h 89% 2.28in /  57.9mm
17:20 67.0 °F /  19.4 °C 63.7 °F /  17.6 °C 29.57in /  1001.2hPa Calm   6.0mph /  9.7km/h 89% 2.28in /  57.9mm
17:25 67.2 °F /  19.6 °C 64.2 °F /  17.9 °C 29.57in /  1001.2hPa SW 2.0mph /  3.2km/h 7.0mph /  11.3km/h 90% 2.28in /  57.9mm
17:30 67.5 °F /  19.7 °C 64.1 °F /  17.8 °C 29.58in /  1001.6hPa Calm   7.0mph /  11.3km/h 89% 2.28in /  57.9mm
17:40 67.7 °F /  19.8 °C 64.7 °F /  18.2 °C 29.58in /  1001.6hPa Calm   6.0mph /  9.7km/h 90% 2.28in /  57.9mm
17:45 67.9 °F /  19.9 °C 64.9 °F /  18.3 °C 29.58in /  1001.6hPa SSW 1.0mph /  1.6km/h 7.0mph /  11.3km/h 90% 2.28in /  57.9mm
17:50 67.9 °F /  19.9 °C 64.5 °F /  18.1 °C 29.59in /  1001.9hPa SSW 2.0mph /  3.2km/h 8.0mph /  12.9km/h 89% 2.28in /  57.9mm
17:54 68.0 °F /  20 °C 64.6 °F /  18.1 °C 29.59in /  1001.9hPa SSW 1.0mph /  1.6km/h 8.0mph /  12.9km/h 89% 2.28in /  57.9mm
17:59 68.0 °F /  20 °C 64.3 °F /  17.9 °C 29.58in /  1001.6hPa SSW 4.0mph /  6.4km/h 10.0mph /  16.1km/h 88% 2.28in /  57.9mm
18:05 68.1 °F /  20.1 °C 64.4 °F /  18 °C 29.58in /  1001.6hPa SSW 2.0mph /  3.2km/h 10.0mph /  16.1km/h 88% 2.28in /  57.9mm
18:09 68.2 °F /  20.1 °C 63.9 °F /  17.7 °C 29.58in /  1001.6hPa SSW 4.0mph /  6.4km/h 15.0mph /  24.1km/h 86% 2.28in /  57.9mm
18:14 68.3 °F /  20.2 °C 64.0 °F /  17.8 °C 29.59in /  1001.9hPa SW 2.0mph /  3.2km/h 15.0mph /  24.1km/h 86% 2.28in /  57.9mm
18:20 68.2 °F /  20.1 °C 63.9 °F /  17.7 °C 29.59in /  1001.9hPa SW 1.0mph /  1.6km/h 14.0mph /  22.5km/h 86% 2.28in /  57.9mm
18:25 68.1 °F /  20.1 °C 63.8 °F /  17.7 °C 29.59in /  1001.9hPa SSW 2.0mph /  3.2km/h 14.0mph /  22.5km/h 86% 2.28in /  57.9mm
18:29 68.0 °F /  20 °C 63.7 °F /  17.6 °C 29.59in /  1001.9hPa SSW 2.0mph /  3.2km/h 11.0mph /  17.7km/h 86% 2.28in /  57.9mm
18:35 67.7 °F /  19.8 °C 63.4 °F /  17.4 °C 29.59in /  1001.9hPa SSW 3.0mph /  4.8km/h 13.0mph /  20.9km/h 86% 2.29in /  58.2mm
18:40 67.5 °F /  19.7 °C 63.5 °F /  17.5 °C 29.60in /  1002.3hPa SSW 1.0mph /  1.6km/h 13.0mph /  20.9km/h 87% 2.29in /  58.2mm
18:45 67.3 °F /  19.6 °C 63.6 °F /  17.6 °C 29.61in /  1002.6hPa SSW 1.0mph /  1.6km/h 11.0mph /  17.7km/h 88% 2.29in /  58.2mm
18:50 67.1 °F /  19.5 °C 63.4 °F /  17.4 °C 29.61in /  1002.6hPa Calm   9.0mph /  14.5km/h 88% 2.29in /  58.2mm
18:55 67.0 °F /  19.4 °C 63.3 °F /  17.4 °C 29.61in /  1002.6hPa Calm   7.0mph /  11.3km/h 88% 2.30in /  58.4mm
18:59 66.8 °F /  19.3 °C 63.5 °F /  17.5 °C 29.62in /  1002.9hPa Calm   7.0mph /  11.3km/h 89% 2.31in /  58.7mm
19:05 66.7 °F /  19.3 °C 63.4 °F /  17.4 °C 29.61in /  1002.6hPa Calm   5.0mph /  8km/h 89% 2.31in /  58.7mm
19:10 66.6 °F /  19.2 °C 63.3 °F /  17.4 °C 29.61in /  1002.6hPa SW 1.0mph /  1.6km/h 7.0mph /  11.3km/h 89% 2.32in /  58.9mm
19:15 66.4 °F /  19.1 °C 63.1 °F /  17.3 °C 29.62in /  1002.9hPa Calm   7.0mph /  11.3km/h 89% 2.32in /  58.9mm
19:20 66.3 °F /  19.1 °C 63.3 °F /  17.4 °C 29.62in /  1002.9hPa Calm   7.0mph /  11.3km/h 90% 2.32in /  58.9mm
19:25 66.2 °F /  19 °C 63.2 °F /  17.3 °C 29.61in /  1002.6hPa Calm   7.0mph /  11.3km/h 90% 2.32in /  58.9mm
19:35 66.0 °F /  18.9 °C 63.0 °F /  17.2 °C 29.61in /  1002.6hPa Calm   5.0mph /  8km/h 90% 2.33in /  59.2mm
19:40 65.9 °F /  18.8 °C 62.9 °F /  17.2 °C 29.61in /  1002.6hPa SSW 1.0mph /  1.6km/h 5.0mph /  8km/h 90% 2.33in /  59.2mm
19:45 65.9 °F /  18.8 °C 62.9 °F /  17.2 °C 29.62in /  1002.9hPa Calm   5.0mph /  8km/h 90% 2.33in /  59.2mm
19:50 65.8 °F /  18.8 °C 63.1 °F /  17.3 °C 29.61in /  1002.6hPa Calm   3.0mph /  4.8km/h 91% 2.33in /  59.2mm
20:00 65.5 °F /  18.6 °C 62.8 °F /  17.1 °C 29.60in /  1002.3hPa SSW 2.0mph /  3.2km/h 6.0mph /  9.7km/h 91% 2.33in /  59.2mm
20:09 65.3 °F /  18.5 °C 62.6 °F /  17 °C 29.60in /  1002.3hPa Calm   5.0mph /  8km/h 91% 2.33in /  59.2mm
20:15 65.2 °F /  18.4 °C 62.5 °F /  16.9 °C 29.60in /  1002.3hPa Calm   3.0mph /  4.8km/h 91% 2.33in /  59.2mm
20:19 65.0 °F /  18.3 °C 62.3 °F /  16.8 °C 29.59in /  1001.9hPa SSW 1.0mph /  1.6km/h 4.0mph /  6.4km/h 91% 2.33in /  59.2mm
20:25 64.8 °F /  18.2 °C 62.1 °F /  16.7 °C 29.59in /  1001.9hPa Calm   4.0mph /  6.4km/h 91% 2.33in /  59.2mm
20:29 64.7 °F /  18.2 °C 62.0 °F /  16.7 °C 29.59in /  1001.9hPa Calm   3.0mph /  4.8km/h 91% 2.33in /  59.2mm
20:35 64.5 °F /  18.1 °C 61.8 °F /  16.6 °C 29.59in /  1001.9hPa Calm   3.0mph /  4.8km/h 91% 2.33in /  59.2mm
20:40 64.3 °F /  17.9 °C 61.6 °F /  16.4 °C 29.60in /  1002.3hPa Calm     91% 2.33in /  59.2mm
20:45 64.2 °F /  17.9 °C 61.5 °F /  16.4 °C 29.60in /  1002.3hPa Calm   1.0mph /  1.6km/h 91% 2.33in /  59.2mm
20:50 64.2 °F /  17.9 °C 61.5 °F /  16.4 °C 29.60in /  1002.3hPa Calm   1.0mph /  1.6km/h 91% 2.33in /  59.2mm
21:00 64.0 °F /  17.8 °C 61.6 °F /  16.4 °C 29.60in /  1002.3hPa WSW 1.0mph /  1.6km/h 4.0mph /  6.4km/h 92% 2.33in /  59.2mm
21:05 64.0 °F /  17.8 °C 61.6 °F /  16.4 °C 29.60in /  1002.3hPa Calm   6.0mph /  9.7km/h 92% 2.33in /  59.2mm
21:10 64.0 °F /  17.8 °C 61.6 °F /  16.4 °C 29.60in /  1002.3hPa Calm   6.0mph /  9.7km/h 92% 2.33in /  59.2mm
21:14 64.0 °F /  17.8 °C 61.6 °F /  16.4 °C 29.60in /  1002.3hPa SW 1.0mph /  1.6km/h 6.0mph /  9.7km/h 92% 2.33in /  59.2mm
21:20 63.9 °F /  17.7 °C 61.5 °F /  16.4 °C 29.60in /  1002.3hPa SSW 2.0mph /  3.2km/h 6.0mph /  9.7km/h 92% 2.33in /  59.2mm
21:25 63.9 °F /  17.7 °C 61.5 °F /  16.4 °C 29.60in /  1002.3hPa SW 1.0mph /  1.6km/h 6.0mph /  9.7km/h 92% 2.33in /  59.2mm
21:29 63.9 °F /  17.7 °C 61.5 °F /  16.4 °C 29.60in /  1002.3hPa SSW 1.0mph /  1.6km/h 7.0mph /  11.3km/h 92% 2.33in /  59.2mm
21:34 63.9 °F /  17.7 °C 61.5 °F /  16.4 °C 29.61in /  1002.6hPa SSW 1.0mph /  1.6km/h 7.0mph /  11.3km/h 92% 2.33in /  59.2mm
21:40 63.8 °F /  17.7 °C 61.4 °F /  16.3 °C 29.61in /  1002.6hPa Calm   6.0mph /  9.7km/h 92% 2.33in /  59.2mm
21:45 63.8 °F /  17.7 °C 61.4 °F /  16.3 °C 29.61in /  1002.6hPa SSW 2.0mph /  3.2km/h 9.0mph /  14.5km/h 92% 2.33in /  59.2mm
21:50 63.7 °F /  17.6 °C 61.3 °F /  16.3 °C 29.61in /  1002.6hPa Calm   9.0mph /  14.5km/h 92% 2.33in /  59.2mm
21:54 63.7 °F /  17.6 °C 61.3 °F /  16.3 °C 29.61in /  1002.6hPa SSW 3.0mph /  4.8km/h 6.0mph /  9.7km/h 92% 2.33in /  59.2mm
22:00 63.7 °F /  17.6 °C 61.6 °F /  16.4 °C 29.61in /  1002.6hPa Calm   6.0mph /  9.7km/h 93% 2.33in /  59.2mm
22:04 63.6 °F /  17.6 °C 61.5 °F /  16.4 °C 29.61in /  1002.6hPa Calm   8.0mph /  12.9km/h 93% 2.33in /  59.2mm
22:10 63.6 °F /  17.6 °C 61.5 °F /  16.4 °C 29.61in /  1002.6hPa Calm   8.0mph /  12.9km/h 93% 2.33in /  59.2mm
22:15 63.5 °F /  17.5 °C 61.4 °F /  16.3 °C 29.61in /  1002.6hPa SSW 2.0mph /  3.2km/h 9.0mph /  14.5km/h 93% 2.33in /  59.2mm
22:19 63.5 °F /  17.5 °C 61.4 °F /  16.3 °C 29.61in /  1002.6hPa SW 2.0mph /  3.2km/h 9.0mph /  14.5km/h 93% 2.33in /  59.2mm
22:25 63.5 °F /  17.5 °C 61.4 °F /  16.3 °C 29.61in /  1002.6hPa SW 1.0mph /  1.6km/h 8.0mph /  12.9km/h 93% 2.33in /  59.2mm
22:30 63.5 °F /  17.5 °C 61.4 °F /  16.3 °C 29.61in /  1002.6hPa SW 3.0mph /  4.8km/h 7.0mph /  11.3km/h 93% 2.33in /  59.2mm
22:39 63.6 °F /  17.6 °C 61.5 °F /  16.4 °C 29.61in /  1002.6hPa SSW 2.0mph /  3.2km/h 9.0mph /  14.5km/h 93% 2.33in /  59.2mm
22:45 63.7 °F /  17.6 °C 61.6 °F /  16.4 °C 29.60in /  1002.3hPa SSW 2.0mph /  3.2km/h 8.0mph /  12.9km/h 93% 2.33in /  59.2mm
22:55 63.8 °F /  17.7 °C 61.7 °F /  16.5 °C 29.60in /  1002.3hPa SW 5.0mph /  8km/h 12.0mph /  19.3km/h 93% 2.33in /  59.2mm
22:59 63.9 °F /  17.7 °C 61.8 °F /  16.6 °C 29.60in /  1002.3hPa SW 2.0mph /  3.2km/h 11.0mph /  17.7km/h 93% 2.33in /  59.2mm
23:04 63.9 °F /  17.7 °C 62.1 °F /  16.7 °C 29.60in /  1002.3hPa SW 3.0mph /  4.8km/h 14.0mph /  22.5km/h 94% 2.33in /  59.2mm
23:10 64.0 °F /  17.8 °C 62.2 °F /  16.8 °C 29.60in /  1002.3hPa SW 4.0mph /  6.4km/h 14.0mph /  22.5km/h 94% 2.33in /  59.2mm
23:15 64.1 °F /  17.8 °C 62.3 °F /  16.8 °C 29.60in /  1002.3hPa SSW 8.0mph /  12.9km/h 15.0mph /  24.1km/h 94% 2.33in /  59.2mm
23:20 64.2 °F /  17.9 °C 62.4 °F /  16.9 °C 29.60in /  1002.3hPa SW 4.0mph /  6.4km/h 15.0mph /  24.1km/h 94% 2.33in /  59.2mm
23:24 64.2 °F /  17.9 °C 62.4 °F /  16.9 °C 29.60in /  1002.3hPa SSW 4.0mph /  6.4km/h 13.0mph /  20.9km/h 94% 2.33in /  59.2mm
23:29 64.3 °F /  17.9 °C 62.5 °F /  16.9 °C 29.60in /  1002.3hPa SSW 5.0mph /  8km/h 14.0mph /  22.5km/h 94% 2.33in /  59.2mm
23:35 64.3 °F /  17.9 °C 62.5 °F /  16.9 °C 29.60in /  1002.3hPa SW 2.0mph /  3.2km/h 14.0mph /  22.5km/h 94% 2.33in /  59.2mm
23:45 64.3 °F /  17.9 °C 62.5 °F /  16.9 °C 29.59in /  1001.9hPa SSW 5.0mph /  8km/h 15.0mph /  24.1km/h 94% 2.33in /  59.2mm
23:50 64.3 °F /  17.9 °C 62.5 °F /  16.9 °C 29.60in /  1002.3hPa SSW 3.0mph /  4.8km/h 15.0mph /  24.1km/h 94% 2.33in /  59.2mm
23:59 64.4 °F /  18 °C 62.6 °F /  17 °C 29.60in /  1002.3hPa SSW 5.0mph /  8km/h 16.0mph /  25.7km/h 94% 2.33in /  59.2mm
Westford Weather
Compliments of Weather Underground

 
 
Current Radar Loop:

Copyright © WestfordWeather.net 2007-2014. All rights reserved.